»·PEaware :: N14726 CYVR-KPDX

N14726 :: CYVR-KPDX

FLIGHT INFORMATION

Flight Status: Arrived
Operator: Privately registered:
United States
More flights under this callsign
Pilot: Mike E. (18363)
Aircraft: ECLIPSE 500
(EA50)
More flights by this aircraft type
Origin: CYVR Vancouver Intl
Canada
Destination: KPDX Portland Intl
United States
More flights between these airports :: More routes between these airports
Route: YVR1 YVR J5 SEA BUWZO KRATR2
File this flight plan on PilotEdge
Remarks:
Altitude:
(Current/Filed)
25,000ft
Speed:
(Current/Filed)
230kts
Departed: 17-Jun-18 10:13 PM
Arrived: 17-Jun-18 11:10 PM
Distance/Time
Traveled:
218nm/0:57
Distance/Time
To Go:
Arrived

Flight Plot

Page will automatically refresh every two minutes.

Flight plan parsing failed; only flown route is shown


Map Options




Map Legend


Flown Route
Filed Route
Departure Airport
Arrival Airport
Navaid (VOR, NDB)
Fix

Horizontal Profiles

Position Reports

Time Latitude Longitude Heading Altitude Ground
Speed
17-Jun-18 22:12 49.006691 -123.112536 158 7972ft 196kts
17-Jun-18 22:13 48.958488 -123.086815 157 9451ft 187kts
17-Jun-18 22:14 48.910961 -123.061620 157 11596ft 183kts
17-Jun-18 22:15 48.867145 -123.038583 156 13679ft 187kts
17-Jun-18 22:16 48.818396 -123.013003 155 15781ft 190kts
17-Jun-18 22:17 48.767453 -122.986320 154 17654ft 199kts
17-Jun-18 22:18 48.714305 -122.958558 154 19385ft 208kts
17-Jun-18 22:19 48.660168 -122.930374 154 21052ft 212kts
17-Jun-18 22:20 48.608276 -122.903408 154 22437ft 219kts
17-Jun-18 22:21 48.600823 -122.899542 154 22622ft 220kts
17-Jun-18 22:22 48.542142 -122.869146 154 24033ft 227kts
17-Jun-18 22:23 48.482134 -122.838069 154 24950ft 253kts
17-Jun-18 22:24 48.408068 -122.799827 155 24969ft 310kts
17-Jun-18 22:25 48.321362 -122.755373 156 24981ft 344kts
17-Jun-18 22:26 48.230007 -122.708726 156 24982ft 352kts
17-Jun-18 22:27 48.137355 -122.661541 156 24982ft 353kts
17-Jun-18 22:28 48.044834 -122.614583 156 24981ft 354kts
17-Jun-18 22:29 47.951928 -122.567610 156 24980ft 354kts
17-Jun-18 22:30 47.866101 -122.524374 156 24970ft 354kts
17-Jun-18 22:31 47.775773 -122.479030 156 24963ft 354kts
17-Jun-18 22:32 47.685024 -122.433634 156 24949ft 354kts
17-Jun-18 22:33 47.591838 -122.387195 156 24942ft 355kts
17-Jun-18 22:34 47.501763 -122.342470 157 24946ft 355kts
17-Jun-18 22:35 47.405805 -122.311782 175 24958ft 363kts
17-Jun-18 22:36 47.306528 -122.310078 176 24965ft 363kts
17-Jun-18 22:37 47.207656 -122.309719 177 24969ft 361kts
17-Jun-18 22:38 47.107378 -122.309642 177 24970ft 361kts
17-Jun-18 22:39 47.007442 -122.309634 177 24972ft 364kts
17-Jun-18 22:40 46.905195 -122.309611 177 24977ft 374kts
17-Jun-18 22:41 46.805916 -122.309607 177 24937ft 378kts
17-Jun-18 22:42 46.704772 -122.309627 177 22925ft 351kts
17-Jun-18 22:43 46.611866 -122.309624 176 20929ft 324kts
17-Jun-18 22:44 46.523633 -122.309595 177 18935ft 318kts
17-Jun-18 22:45 46.435535 -122.309598 177 16945ft 317kts
17-Jun-18 22:46 46.348221 -122.309588 177 14961ft 316kts
17-Jun-18 22:47 46.260356 -122.309987 183 12969ft 319kts
17-Jun-18 22:48 46.178035 -122.353569 199 11035ft 311kts
17-Jun-18 22:49 46.099991 -122.397137 199 10004ft 285kts
17-Jun-18 22:50 46.024653 -122.437945 198 8787ft 289kts
17-Jun-18 22:51 45.950067 -122.478051 200 7446ft 288kts
17-Jun-18 22:52 45.891314 -122.540184 221 5951ft 253kts
17-Jun-18 22:53 45.839857 -122.604197 221 5000ft 237kts
17-Jun-18 22:54 45.792529 -122.663494 219 4999ft 235kts
17-Jun-18 22:55 45.753919 -122.736535 269 4992ft 238kts
17-Jun-18 22:56 45.775564 -122.824040 292 4999ft 231kts
17-Jun-18 22:57 45.777999 -122.911441 252 4999ft 232kts
17-Jun-18 22:58 45.757847 -122.998992 252 4999ft 230kts
17-Jun-18 22:59 45.786793 -123.070690 319 4655ft 225kts
17-Jun-18 23:00 45.833616 -123.068581 80 3992ft 218kts
17-Jun-18 23:01 45.787641 -123.025638 169 3998ft 227kts
17-Jun-18 23:02 45.735152 -122.987098 116 3436ft 220kts
17-Jun-18 23:03 45.706941 -122.910234 117 3097ft 219kts
17-Jun-18 23:04 45.678979 -122.837641 117 3091ft 206kts
17-Jun-18 23:05 45.653643 -122.772022 117 2192ft 176kts
17-Jun-18 23:06 45.633795 -122.720916 118 1590ft 124kts
17-Jun-18 23:07 45.619329 -122.683658 118 1024ft 101kts
17-Jun-18 23:08 45.605922 -122.649209 118 499ft 101kts
17-Jun-18 23:09 45.592445 -122.614590 116 20ft 87kts
17-Jun-18 23:10 45.588536 -122.605474 263 20ft 8kts
17-Jun-18 23:11 45.588123 -122.606511 220 20ft 0kts

Navigation Log

Ident Type
Flight plan parsing failed, navigation log unavailable